sensor_id;sensor_type;location;lat;lon;timestamp;P1;durP1;ratioP1;P2;durP2;ratioP2
8104;SDS011;4095;48.942;9.104;2023-12-29T00:01:22;3.23;;;2.40;;
8104;SDS011;4095;48.942;9.104;2023-12-29T00:03:47;2.97;;;2.67;;
8104;SDS011;4095;48.942;9.104;2023-12-29T00:06:13;2.97;;;2.67;;
8104;SDS011;4095;48.942;9.104;2023-12-29T00:08:38;3.20;;;2.90;;
8104;SDS011;4095;48.942;9.104;2023-12-29T00:11:04;3.17;;;2.60;;
8104;SDS011;4095;48.942;9.104;2023-12-29T00:13:30;2.70;;;2.50;;
8104;SDS011;4095;48.942;9.104;2023-12-29T00:15:55;3.30;;;2.47;;
8104;SDS011;4095;48.942;9.104;2023-12-29T00:18:21;2.23;;;2.03;;
8104;SDS011;4095;48.942;9.104;2023-12-29T00:20:47;2.93;;;2.20;;
8104;SDS011;4095;48.942;9.104;2023-12-29T00:23:14;2.60;;;2.40;;
8104;SDS011;4095;48.942;9.104;2023-12-29T00:25:40;2.60;;;2.37;;
8104;SDS011;4095;48.942;9.104;2023-12-29T00:28:05;2.43;;;2.23;;
8104;SDS011;4095;48.942;9.104;2023-12-29T00:30:31;2.53;;;2.33;;
8104;SDS011;4095;48.942;9.104;2023-12-29T00:32:57;2.70;;;2.50;;
8104;SDS011;4095;48.942;9.104;2023-12-29T00:35:22;3.07;;;2.57;;
8104;SDS011;4095;48.942;9.104;2023-12-29T00:37:49;2.70;;;2.40;;
8104;SDS011;4095;48.942;9.104;2023-12-29T00:40:16;2.90;;;2.60;;
8104;SDS011;4095;48.942;9.104;2023-12-29T00:42:41;2.97;;;2.63;;
8104;SDS011;4095;48.942;9.104;2023-12-29T00:45:07;2.53;;;2.33;;
8104;SDS011;4095;48.942;9.104;2023-12-29T00:47:33;3.00;;;2.43;;
8104;SDS011;4095;48.942;9.104;2023-12-29T00:49:59;3.60;;;2.50;;
8104;SDS011;4095;48.942;9.104;2023-12-29T00:52:25;2.73;;;2.53;;
8104;SDS011;4095;48.942;9.104;2023-12-29T00:54:51;2.77;;;2.57;;
8104;SDS011;4095;48.942;9.104;2023-12-29T00:57:17;2.63;;;2.40;;
8104;SDS011;4095;48.942;9.104;2023-12-29T00:59:42;5.17;;;2.80;;
8104;SDS011;4095;48.942;9.104;2023-12-29T01:02:09;3.20;;;2.80;;
8104;SDS011;4095;48.942;9.104;2023-12-29T01:04:37;3.10;;;2.80;;
8104;SDS011;4095;48.942;9.104;2023-12-29T01:07:04;3.00;;;2.80;;
8104;SDS011;4095;48.942;9.104;2023-12-29T01:09:30;3.10;;;2.80;;
8104;SDS011;4095;48.942;9.104;2023-12-29T01:11:55;3.47;;;3.10;;
8104;SDS011;4095;48.942;9.104;2023-12-29T01:14:21;3.63;;;3.13;;
8104;SDS011;4095;48.942;9.104;2023-12-29T01:16:46;3.50;;;3.03;;
8104;SDS011;4095;48.942;9.104;2023-12-29T01:19:12;3.30;;;3.00;;
8104;SDS011;4095;48.942;9.104;2023-12-29T01:21:38;3.67;;;3.03;;
8104;SDS011;4095;48.942;9.104;2023-12-29T01:24:04;3.30;;;3.00;;
8104;SDS011;4095;48.942;9.104;2023-12-29T01:26:32;3.40;;;3.10;;
8104;SDS011;4095;48.942;9.104;2023-12-29T01:29:01;4.70;;;3.77;;
8104;SDS011;4095;48.942;9.104;2023-12-29T01:31:30;4.50;;;3.40;;
8104;SDS011;4095;48.942;9.104;2023-12-29T01:33:56;3.87;;;3.27;;
8104;SDS011;4095;48.942;9.104;2023-12-29T01:36:21;4.33;;;3.17;;
8104;SDS011;4095;48.942;9.104;2023-12-29T01:38:47;3.30;;;3.00;;
8104;SDS011;4095;48.942;9.104;2023-12-29T01:41:13;4.93;;;3.00;;
8104;SDS011;4095;48.942;9.104;2023-12-29T01:46:45;4.23;;;3.23;;
8104;SDS011;4095;48.942;9.104;2023-12-29T01:49:13;3.70;;;2.93;;
8104;SDS011;4095;48.942;9.104;2023-12-29T01:51:41;3.23;;;2.93;;
8104;SDS011;4095;48.942;9.104;2023-12-29T01:54:08;3.70;;;2.97;;
8104;SDS011;4095;48.942;9.104;2023-12-29T01:56:34;3.00;;;2.70;;
8104;SDS011;4095;48.942;9.104;2023-12-29T01:59:01;3.47;;;2.80;;
8104;SDS011;4095;48.942;9.104;2023-12-29T02:01:26;5.63;;;3.00;;
8104;SDS011;4095;48.942;9.104;2023-12-29T02:03:53;3.00;;;2.60;;
8104;SDS011;4095;48.942;9.104;2023-12-29T02:06:18;2.90;;;2.60;;
8104;SDS011;4095;48.942;9.104;2023-12-29T02:08:46;4.73;;;3.20;;
8104;SDS011;4095;48.942;9.104;2023-12-29T02:11:12;3.90;;;3.20;;
8104;SDS011;4095;48.942;9.104;2023-12-29T02:13:39;3.30;;;3.00;;
8104;SDS011;4095;48.942;9.104;2023-12-29T02:16:26;3.10;;;2.80;;
8104;SDS011;4095;48.942;9.104;2023-12-29T02:19:00;3.23;;;2.70;;
8104;SDS011;4095;48.942;9.104;2023-12-29T02:21:29;4.17;;;2.87;;
8104;SDS011;4095;48.942;9.104;2023-12-29T02:23:55;4.40;;;3.07;;
8104;SDS011;4095;48.942;9.104;2023-12-29T02:26:20;3.47;;;3.17;;
8104;SDS011;4095;48.942;9.104;2023-12-29T02:28:53;3.90;;;2.77;;
8104;SDS011;4095;48.942;9.104;2023-12-29T02:31:25;3.70;;;2.73;;
8104;SDS011;4095;48.942;9.104;2023-12-29T02:33:55;3.20;;;2.97;;
8104;SDS011;4095;48.942;9.104;2023-12-29T02:36:21;4.27;;;3.00;;
8104;SDS011;4095;48.942;9.104;2023-12-29T02:38:48;3.17;;;2.80;;
8104;SDS011;4095;48.942;9.104;2023-12-29T02:41:14;3.40;;;2.90;;
8104;SDS011;4095;48.942;9.104;2023-12-29T02:43:41;4.53;;;2.93;;
8104;SDS011;4095;48.942;9.104;2023-12-29T02:46:06;3.43;;;2.80;;
8104;SDS011;4095;48.942;9.104;2023-12-29T02:48:32;4.33;;;3.03;;
8104;SDS011;4095;48.942;9.104;2023-12-29T02:50:58;4.80;;;3.00;;
8104;SDS011;4095;48.942;9.104;2023-12-29T02:53:23;3.93;;;2.97;;
8104;SDS011;4095;48.942;9.104;2023-12-29T02:55:49;3.40;;;3.03;;
8104;SDS011;4095;48.942;9.104;2023-12-29T02:58:14;3.67;;;2.60;;
8104;SDS011;4095;48.942;9.104;2023-12-29T03:00:40;3.30;;;3.00;;
8104;SDS011;4095;48.942;9.104;2023-12-29T03:03:06;3.00;;;2.70;;
8104;SDS011;4095;48.942;9.104;2023-12-29T03:05:31;3.40;;;2.70;;
8104;SDS011;4095;48.942;9.104;2023-12-29T03:07:57;3.23;;;2.93;;
8104;SDS011;4095;48.942;9.104;2023-12-29T03:10:22;4.27;;;2.87;;
8104;SDS011;4095;48.942;9.104;2023-12-29T03:12:48;3.77;;;3.00;;
8104;SDS011;4095;48.942;9.104;2023-12-29T03:15:14;3.30;;;3.00;;
8104;SDS011;4095;48.942;9.104;2023-12-29T03:17:40;3.23;;;2.87;;
8104;SDS011;4095;48.942;9.104;2023-12-29T03:20:05;4.70;;;3.10;;
8104;SDS011;4095;48.942;9.104;2023-12-29T03:22:32;3.90;;;3.10;;
8104;SDS011;4095;48.942;9.104;2023-12-29T03:24:58;3.43;;;3.13;;
8104;SDS011;4095;48.942;9.104;2023-12-29T03:27:23;3.33;;;3.03;;
8104;SDS011;4095;48.942;9.104;2023-12-29T03:29:49;3.60;;;3.30;;
8104;SDS011;4095;48.942;9.104;2023-12-29T03:32:15;3.70;;;3.30;;
8104;SDS011;4095;48.942;9.104;2023-12-29T03:34:40;4.07;;;3.20;;
8104;SDS011;4095;48.942;9.104;2023-12-29T03:37:06;3.53;;;3.23;;
8104;SDS011;4095;48.942;9.104;2023-12-29T03:39:32;4.57;;;3.17;;
8104;SDS011;4095;48.942;9.104;2023-12-29T03:42:00;3.93;;;3.30;;
8104;SDS011;4095;48.942;9.104;2023-12-29T03:44:26;5.17;;;3.40;;
8104;SDS011;4095;48.942;9.104;2023-12-29T03:46:51;3.93;;;3.40;;
8104;SDS011;4095;48.942;9.104;2023-12-29T03:49:17;4.30;;;3.10;;
8104;SDS011;4095;48.942;9.104;2023-12-29T03:51:44;3.90;;;3.20;;
8104;SDS011;4095;48.942;9.104;2023-12-29T03:54:11;3.20;;;2.90;;
8104;SDS011;4095;48.942;9.104;2023-12-29T03:56:36;3.40;;;3.10;;
8104;SDS011;4095;48.942;9.104;2023-12-29T03:59:02;3.60;;;2.73;;
8104;SDS011;4095;48.942;9.104;2023-12-29T04:01:27;4.27;;;3.10;;
8104;SDS011;4095;48.942;9.104;2023-12-29T04:03:53;3.47;;;3.03;;
8104;SDS011;4095;48.942;9.104;2023-12-29T04:06:19;3.93;;;3.00;;
8104;SDS011;4095;48.942;9.104;2023-12-29T04:08:44;4.03;;;3.10;;
8104;SDS011;4095;48.942;9.104;2023-12-29T04:11:10;3.50;;;3.20;;
8104;SDS011;4095;48.942;9.104;2023-12-29T04:13:36;3.73;;;3.17;;
8104;SDS011;4095;48.942;9.104;2023-12-29T04:16:02;3.33;;;3.03;;
8104;SDS011;4095;48.942;9.104;2023-12-29T04:18:28;3.53;;;3.00;;
8104;SDS011;4095;48.942;9.104;2023-12-29T04:20:54;5.67;;;3.70;;
8104;SDS011;4095;48.942;9.104;2023-12-29T04:23:19;4.13;;;3.30;;
8104;SDS011;4095;48.942;9.104;2023-12-29T04:25:45;3.23;;;2.93;;
8104;SDS011;4095;48.942;9.104;2023-12-29T04:28:11;4.07;;;3.40;;
8104;SDS011;4095;48.942;9.104;2023-12-29T04:30:36;4.17;;;3.40;;
8104;SDS011;4095;48.942;9.104;2023-12-29T04:33:02;4.93;;;3.60;;
8104;SDS011;4095;48.942;9.104;2023-12-29T04:35:28;3.37;;;3.03;;
8104;SDS011;4095;48.942;9.104;2023-12-29T04:37:54;4.00;;;3.30;;
8104;SDS011;4095;48.942;9.104;2023-12-29T04:40:19;3.63;;;3.10;;
8104;SDS011;4095;48.942;9.104;2023-12-29T04:42:45;4.37;;;3.40;;
8104;SDS011;4095;48.942;9.104;2023-12-29T04:45:10;4.37;;;3.30;;
8104;SDS011;4095;48.942;9.104;2023-12-29T04:47:36;3.47;;;3.17;;
8104;SDS011;4095;48.942;9.104;2023-12-29T04:50:03;3.23;;;2.93;;
8104;SDS011;4095;48.942;9.104;2023-12-29T04:52:30;3.23;;;2.93;;
8104;SDS011;4095;48.942;9.104;2023-12-29T04:54:56;3.73;;;3.30;;
8104;SDS011;4095;48.942;9.104;2023-12-29T04:57:21;3.20;;;2.80;;
8104;SDS011;4095;48.942;9.104;2023-12-29T04:59:47;3.20;;;2.90;;
8104;SDS011;4095;48.942;9.104;2023-12-29T05:02:13;3.43;;;2.90;;
8104;SDS011;4095;48.942;9.104;2023-12-29T05:04:38;3.33;;;3.03;;
8104;SDS011;4095;48.942;9.104;2023-12-29T05:07:05;3.07;;;2.77;;
8104;SDS011;4095;48.942;9.104;2023-12-29T05:09:32;3.67;;;2.90;;
8104;SDS011;4095;48.942;9.104;2023-12-29T05:11:58;2.83;;;2.40;;
8104;SDS011;4095;48.942;9.104;2023-12-29T05:14:23;3.37;;;2.40;;
8104;SDS011;4095;48.942;9.104;2023-12-29T05:16:49;4.63;;;2.60;;
8104;SDS011;4095;48.942;9.104;2023-12-29T05:19:14;4.43;;;2.90;;
8104;SDS011;4095;48.942;9.104;2023-12-29T05:21:40;2.60;;;2.40;;
8104;SDS011;4095;48.942;9.104;2023-12-29T05:24:06;3.40;;;2.67;;
8104;SDS011;4095;48.942;9.104;2023-12-29T05:26:32;3.27;;;2.93;;
8104;SDS011;4095;48.942;9.104;2023-12-29T05:28:58;2.90;;;2.60;;
8104;SDS011;4095;48.942;9.104;2023-12-29T05:31:23;3.10;;;2.80;;
8104;SDS011;4095;48.942;9.104;2023-12-29T05:33:50;2.33;;;2.13;;
8104;SDS011;4095;48.942;9.104;2023-12-29T05:36:16;2.60;;;2.40;;
8104;SDS011;4095;48.942;9.104;2023-12-29T05:38:42;3.10;;;2.70;;
8104;SDS011;4095;48.942;9.104;2023-12-29T05:41:11;2.73;;;2.40;;
8104;SDS011;4095;48.942;9.104;2023-12-29T05:43:38;2.90;;;2.70;;
8104;SDS011;4095;48.942;9.104;2023-12-29T05:46:08;2.83;;;2.63;;
8104;SDS011;4095;48.942;9.104;2023-12-29T05:48:35;3.07;;;2.63;;
8104;SDS011;4095;48.942;9.104;2023-12-29T05:51:05;2.90;;;2.70;;
8104;SDS011;4095;48.942;9.104;2023-12-29T05:53:34;2.90;;;2.70;;
8104;SDS011;4095;48.942;9.104;2023-12-29T05:56:00;2.87;;;2.60;;
8104;SDS011;4095;48.942;9.104;2023-12-29T05:58:26;2.67;;;2.47;;
8104;SDS011;4095;48.942;9.104;2023-12-29T06:00:51;3.27;;;2.97;;
8104;SDS011;4095;48.942;9.104;2023-12-29T06:03:17;3.30;;;2.73;;
8104;SDS011;4095;48.942;9.104;2023-12-29T06:05:43;3.30;;;3.00;;
8104;SDS011;4095;48.942;9.104;2023-12-29T06:08:08;3.20;;;2.90;;
8104;SDS011;4095;48.942;9.104;2023-12-29T06:10:35;2.93;;;2.63;;
8104;SDS011;4095;48.942;9.104;2023-12-29T06:13:01;3.10;;;2.80;;
8104;SDS011;4095;48.942;9.104;2023-12-29T06:15:28;3.33;;;3.00;;
8104;SDS011;4095;48.942;9.104;2023-12-29T06:17:53;3.10;;;2.90;;
8104;SDS011;4095;48.942;9.104;2023-12-29T06:20:19;3.10;;;2.90;;
8104;SDS011;4095;48.942;9.104;2023-12-29T06:22:45;3.30;;;2.87;;
8104;SDS011;4095;48.942;9.104;2023-12-29T06:25:11;3.30;;;3.00;;
8104;SDS011;4095;48.942;9.104;2023-12-29T06:27:38;2.97;;;2.77;;
8104;SDS011;4095;48.942;9.104;2023-12-29T06:30:05;3.30;;;3.00;;
8104;SDS011;4095;48.942;9.104;2023-12-29T06:32:32;3.40;;;3.10;;
8104;SDS011;4095;48.942;9.104;2023-12-29T06:34:57;3.20;;;2.90;;
8104;SDS011;4095;48.942;9.104;2023-12-29T06:37:23;3.00;;;2.80;;
8104;SDS011;4095;48.942;9.104;2023-12-29T06:39:49;3.23;;;2.90;;
8104;SDS011;4095;48.942;9.104;2023-12-29T06:42:14;3.23;;;2.97;;
8104;SDS011;4095;48.942;9.104;2023-12-29T06:44:40;4.03;;;2.90;;
8104;SDS011;4095;48.942;9.104;2023-12-29T06:47:05;3.00;;;2.70;;
8104;SDS011;4095;48.942;9.104;2023-12-29T06:49:32;3.20;;;2.80;;
8104;SDS011;4095;48.942;9.104;2023-12-29T06:51:59;3.00;;;2.70;;
8104;SDS011;4095;48.942;9.104;2023-12-29T06:54:25;3.00;;;2.80;;
8104;SDS011;4095;48.942;9.104;2023-12-29T06:56:50;3.37;;;3.00;;
8104;SDS011;4095;48.942;9.104;2023-12-29T06:59:16;3.00;;;2.80;;
8104;SDS011;4095;48.942;9.104;2023-12-29T07:01:43;2.90;;;2.60;;
8104;SDS011;4095;48.942;9.104;2023-12-29T07:04:09;2.87;;;2.67;;
8104;SDS011;4095;48.942;9.104;2023-12-29T07:06:35;3.17;;;2.73;;
8104;SDS011;4095;48.942;9.104;2023-12-29T07:09:01;3.13;;;2.83;;
8104;SDS011;4095;48.942;9.104;2023-12-29T07:11:28;3.03;;;2.73;;
8104;SDS011;4095;48.942;9.104;2023-12-29T07:13:54;3.00;;;2.70;;
8104;SDS011;4095;48.942;9.104;2023-12-29T07:16:19;3.03;;;2.70;;
8104;SDS011;4095;48.942;9.104;2023-12-29T07:18:45;2.80;;;2.60;;
8104;SDS011;4095;48.942;9.104;2023-12-29T07:21:11;2.80;;;2.60;;
8104;SDS011;4095;48.942;9.104;2023-12-29T07:23:37;4.70;;;2.40;;
8104;SDS011;4095;48.942;9.104;2023-12-29T07:26:03;2.73;;;2.23;;
8104;SDS011;4095;48.942;9.104;2023-12-29T07:28:29;2.77;;;2.50;;
8104;SDS011;4095;48.942;9.104;2023-12-29T07:30:56;2.63;;;2.40;;
8104;SDS011;4095;48.942;9.104;2023-12-29T07:33:22;2.80;;;2.60;;
8104;SDS011;4095;48.942;9.104;2023-12-29T07:35:49;2.77;;;2.57;;
8104;SDS011;4095;48.942;9.104;2023-12-29T07:38:15;2.80;;;2.50;;
8104;SDS011;4095;48.942;9.104;2023-12-29T07:40:40;2.50;;;2.30;;
8104;SDS011;4095;48.942;9.104;2023-12-29T07:43:06;2.80;;;2.33;;
8104;SDS011;4095;48.942;9.104;2023-12-29T07:45:31;2.53;;;2.23;;
8104;SDS011;4095;48.942;9.104;2023-12-29T07:47:57;2.30;;;2.10;;
8104;SDS011;4095;48.942;9.104;2023-12-29T07:50:22;2.50;;;2.30;;
8104;SDS011;4095;48.942;9.104;2023-12-29T07:52:48;2.97;;;2.17;;
8104;SDS011;4095;48.942;9.104;2023-12-29T07:55:14;2.27;;;2.07;;
8104;SDS011;4095;48.942;9.104;2023-12-29T07:57:41;2.43;;;2.20;;
8104;SDS011;4095;48.942;9.104;2023-12-29T08:00:08;4.30;;;2.00;;
8104;SDS011;4095;48.942;9.104;2023-12-29T08:02:34;2.30;;;2.10;;
8104;SDS011;4095;48.942;9.104;2023-12-29T08:05:00;2.17;;;1.97;;
8104;SDS011;4095;48.942;9.104;2023-12-29T08:07:26;2.47;;;1.90;;
8104;SDS011;4095;48.942;9.104;2023-12-29T08:09:51;1.77;;;1.67;;
8104;SDS011;4095;48.942;9.104;2023-12-29T08:12:17;1.97;;;1.80;;
8104;SDS011;4095;48.942;9.104;2023-12-29T08:14:43;2.20;;;2.00;;
8104;SDS011;4095;48.942;9.104;2023-12-29T08:17:08;1.93;;;1.70;;
8104;SDS011;4095;48.942;9.104;2023-12-29T08:19:34;2.30;;;2.10;;
8104;SDS011;4095;48.942;9.104;2023-12-29T08:22:01;1.73;;;1.63;;
8104;SDS011;4095;48.942;9.104;2023-12-29T08:24:27;2.20;;;1.90;;
8104;SDS011;4095;48.942;9.104;2023-12-29T08:26:52;2.70;;;2.00;;
8104;SDS011;4095;48.942;9.104;2023-12-29T08:29:18;2.20;;;2.00;;
8104;SDS011;4095;48.942;9.104;2023-12-29T08:31:44;2.00;;;1.80;;
8104;SDS011;4095;48.942;9.104;2023-12-29T08:34:11;2.13;;;1.70;;
8104;SDS011;4095;48.942;9.104;2023-12-29T08:36:37;2.33;;;1.90;;
8104;SDS011;4095;48.942;9.104;2023-12-29T08:39:03;2.93;;;2.10;;
8104;SDS011;4095;48.942;9.104;2023-12-29T08:41:28;2.27;;;2.07;;
8104;SDS011;4095;48.942;9.104;2023-12-29T08:43:54;2.17;;;1.97;;
8104;SDS011;4095;48.942;9.104;2023-12-29T08:46:20;2.23;;;2.00;;
8104;SDS011;4095;48.942;9.104;2023-12-29T08:48:46;2.10;;;1.90;;
8104;SDS011;4095;48.942;9.104;2023-12-29T08:51:11;2.47;;;2.00;;
8104;SDS011;4095;48.942;9.104;2023-12-29T08:53:37;2.30;;;2.10;;
8104;SDS011;4095;48.942;9.104;2023-12-29T08:56:03;2.17;;;1.80;;
8104;SDS011;4095;48.942;9.104;2023-12-29T08:58:29;2.20;;;2.00;;
8104;SDS011;4095;48.942;9.104;2023-12-29T09:00:56;2.13;;;1.93;;
8104;SDS011;4095;48.942;9.104;2023-12-29T09:03:21;2.30;;;1.77;;
8104;SDS011;4095;48.942;9.104;2023-12-29T09:05:47;2.37;;;1.90;;
8104;SDS011;4095;48.942;9.104;2023-12-29T09:08:12;2.30;;;1.80;;
8104;SDS011;4095;48.942;9.104;2023-12-29T09:10:38;2.13;;;1.93;;
8104;SDS011;4095;48.942;9.104;2023-12-29T09:13:04;2.30;;;2.10;;
8104;SDS011;4095;48.942;9.104;2023-12-29T09:15:30;2.80;;;1.83;;
8104;SDS011;4095;48.942;9.104;2023-12-29T09:17:55;2.27;;;2.07;;
8104;SDS011;4095;48.942;9.104;2023-12-29T09:20:21;2.23;;;2.00;;
8104;SDS011;4095;48.942;9.104;2023-12-29T09:22:47;2.10;;;1.90;;
8104;SDS011;4095;48.942;9.104;2023-12-29T09:25:12;2.00;;;1.80;;
8104;SDS011;4095;48.942;9.104;2023-12-29T09:27:39;2.10;;;1.90;;
8104;SDS011;4095;48.942;9.104;2023-12-29T09:30:04;2.23;;;2.03;;
8104;SDS011;4095;48.942;9.104;2023-12-29T09:32:31;3.37;;;2.10;;
8104;SDS011;4095;48.942;9.104;2023-12-29T09:34:56;2.30;;;1.97;;
8104;SDS011;4095;48.942;9.104;2023-12-29T09:37:22;3.00;;;2.30;;
8104;SDS011;4095;48.942;9.104;2023-12-29T09:39:47;2.83;;;2.20;;
8104;SDS011;4095;48.942;9.104;2023-12-29T09:42:16;2.33;;;1.90;;
8104;SDS011;4095;48.942;9.104;2023-12-29T09:44:47;2.37;;;2.17;;
8104;SDS011;4095;48.942;9.104;2023-12-29T09:47:16;2.30;;;2.10;;
8104;SDS011;4095;48.942;9.104;2023-12-29T09:49:47;2.50;;;2.10;;
8104;SDS011;4095;48.942;9.104;2023-12-29T09:52:14;2.10;;;1.90;;
8104;SDS011;4095;48.942;9.104;2023-12-29T09:54:41;2.50;;;2.30;;
8104;SDS011;4095;48.942;9.104;2023-12-29T09:57:08;2.37;;;2.17;;
8104;SDS011;4095;48.942;9.104;2023-12-29T09:59:34;2.30;;;2.10;;
8104;SDS011;4095;48.942;9.104;2023-12-29T10:02:04;2.40;;;2.00;;
8104;SDS011;4095;48.942;9.104;2023-12-29T10:04:30;2.20;;;2.00;;
8104;SDS011;4095;48.942;9.104;2023-12-29T10:06:56;2.23;;;1.80;;
8104;SDS011;4095;48.942;9.104;2023-12-29T10:09:29;3.27;;;2.43;;
8104;SDS011;4095;48.942;9.104;2023-12-29T10:11:56;1.80;;;1.70;;
8104;SDS011;4095;48.942;9.104;2023-12-29T10:14:24;1.83;;;1.57;;
8104;SDS011;4095;48.942;9.104;2023-12-29T10:17:58;1.60;;;1.50;;
8104;SDS011;4095;48.942;9.104;2023-12-29T10:20:12;2.27;;;1.50;;
8104;SDS011;4095;48.942;9.104;2023-12-29T10:23:06;1.60;;;1.40;;
8104;SDS011;4095;48.942;9.104;2023-12-29T10:25:38;2.20;;;1.10;;
8104;SDS011;4095;48.942;9.104;2023-12-29T10:28:05;1.40;;;1.30;;
8104;SDS011;4095;48.942;9.104;2023-12-29T10:30:32;1.33;;;1.23;;
8104;SDS011;4095;48.942;9.104;2023-12-29T10:32:58;1.40;;;1.20;;
8104;SDS011;4095;48.942;9.104;2023-12-29T10:35:25;1.07;;;0.97;;
8104;SDS011;4095;48.942;9.104;2023-12-29T10:37:51;2.23;;;1.20;;
8104;SDS011;4095;48.942;9.104;2023-12-29T10:40:17;1.10;;;1.00;;
8104;SDS011;4095;48.942;9.104;2023-12-29T10:42:53;1.40;;;1.30;;
8104;SDS011;4095;48.942;9.104;2023-12-29T10:45:20;1.00;;;1.00;;
8104;SDS011;4095;48.942;9.104;2023-12-29T10:47:47;1.40;;;1.00;;
8104;SDS011;4095;48.942;9.104;2023-12-29T10:50:13;0.90;;;0.90;;
8104;SDS011;4095;48.942;9.104;2023-12-29T10:52:39;1.13;;;1.00;;
8104;SDS011;4095;48.942;9.104;2023-12-29T10:55:07;1.80;;;1.10;;
8104;SDS011;4095;48.942;9.104;2023-12-29T10:57:34;1.20;;;1.10;;
8104;SDS011;4095;48.942;9.104;2023-12-29T11:00:00;1.20;;;0.82;;
8104;SDS011;4095;48.942;9.104;2023-12-29T11:02:27;1.15;;;1.05;;
8104;SDS011;4095;48.942;9.104;2023-12-29T11:05:06;0.80;;;0.80;;
8104;SDS011;4095;48.942;9.104;2023-12-29T11:10:02;1.08;;;0.98;;
8104;SDS011;4095;48.942;9.104;2023-12-29T11:12:34;1.02;;;0.93;;
8104;SDS011;4095;48.942;9.104;2023-12-29T11:15:01;1.40;;;0.82;;
8104;SDS011;4095;48.942;9.104;2023-12-29T11:17:29;1.17;;;1.07;;
8104;SDS011;4095;48.942;9.104;2023-12-29T11:19:57;0.97;;;0.87;;
8104;SDS011;4095;48.942;9.104;2023-12-29T11:22:28;1.13;;;0.83;;
8104;SDS011;4095;48.942;9.104;2023-12-29T11:24:55;1.10;;;1.00;;
8104;SDS011;4095;48.942;9.104;2023-12-29T11:27:23;1.27;;;0.70;;
8104;SDS011;4095;48.942;9.104;2023-12-29T11:29:56;0.70;;;0.65;;
8104;SDS011;4095;48.942;9.104;2023-12-29T11:32:36;0.98;;;0.60;;
8104;SDS011;4095;48.942;9.104;2023-12-29T11:35:27;0.75;;;0.55;;
8104;SDS011;4095;48.942;9.104;2023-12-29T11:43:59;1.05;;;0.60;;
8104;SDS011;4095;48.942;9.104;2023-12-29T11:46:38;2.10;;;0.60;;
8104;SDS011;4095;48.942;9.104;2023-12-29T11:49:07;0.95;;;0.73;;
8104;SDS011;4095;48.942;9.104;2023-12-29T11:51:40;0.50;;;0.50;;
8104;SDS011;4095;48.942;9.104;2023-12-29T11:54:10;0.70;;;0.68;;
8104;SDS011;4095;48.942;9.104;2023-12-29T11:56:46;0.77;;;0.77;;
8104;SDS011;4095;48.942;9.104;2023-12-29T11:59:12;1.02;;;0.93;;
8104;SDS011;4095;48.942;9.104;2023-12-29T12:01:45;0.93;;;0.80;;
8104;SDS011;4095;48.942;9.104;2023-12-29T12:04:33;1.02;;;0.80;;
8104;SDS011;4095;48.942;9.104;2023-12-29T12:07:03;1.17;;;0.65;;
8104;SDS011;4095;48.942;9.104;2023-12-29T12:09:30;0.52;;;0.52;;
8104;SDS011;4095;48.942;9.104;2023-12-29T12:11:56;1.75;;;0.60;;
8104;SDS011;4095;48.942;9.104;2023-12-29T12:14:55;1.35;;;0.60;;
8104;SDS011;4095;48.942;9.104;2023-12-29T12:17:31;1.70;;;0.80;;
8104;SDS011;4095;48.942;9.104;2023-12-29T12:19:58;0.75;;;0.60;;
8104;SDS011;4095;48.942;9.104;2023-12-29T12:22:30;0.60;;;0.60;;
8104;SDS011;4095;48.942;9.104;2023-12-29T12:24:57;0.63;;;0.55;;
8104;SDS011;4095;48.942;9.104;2023-12-29T12:27:24;0.70;;;0.70;;
8104;SDS011;4095;48.942;9.104;2023-12-29T12:29:52;0.70;;;0.70;;
8104;SDS011;4095;48.942;9.104;2023-12-29T12:32:21;1.02;;;0.90;;
8104;SDS011;4095;48.942;9.104;2023-12-29T12:34:47;1.35;;;1.00;;
8104;SDS011;4095;48.942;9.104;2023-12-29T12:37:18;1.13;;;0.90;;
8104;SDS011;4095;48.942;9.104;2023-12-29T12:39:47;1.00;;;0.90;;
8104;SDS011;4095;48.942;9.104;2023-12-29T12:42:14;1.00;;;0.80;;
8104;SDS011;4095;48.942;9.104;2023-12-29T12:44:42;1.17;;;1.07;;
8104;SDS011;4095;48.942;9.104;2023-12-29T12:47:26;0.90;;;0.90;;
8104;SDS011;4095;48.942;9.104;2023-12-29T12:49:59;0.90;;;0.90;;
8104;SDS011;4095;48.942;9.104;2023-12-29T12:52:26;1.20;;;0.80;;
8104;SDS011;4095;48.942;9.104;2023-12-29T12:54:55;1.10;;;1.00;;
8104;SDS011;4095;48.942;9.104;2023-12-29T12:57:20;0.97;;;0.90;;
8104;SDS011;4095;48.942;9.104;2023-12-29T12:59:47;1.13;;;0.90;;
8104;SDS011;4095;48.942;9.104;2023-12-29T13:02:15;1.17;;;1.07;;
8104;SDS011;4095;48.942;9.104;2023-12-29T13:04:42;1.70;;;0.97;;
8104;SDS011;4095;48.942;9.104;2023-12-29T13:07:08;1.97;;;1.23;;
8104;SDS011;4095;48.942;9.104;2023-12-29T13:09:35;1.20;;;1.10;;
8104;SDS011;4095;48.942;9.104;2023-12-29T13:12:11;1.37;;;1.27;;
8104;SDS011;4095;48.942;9.104;2023-12-29T13:14:38;1.33;;;1.20;;
8104;SDS011;4095;48.942;9.104;2023-12-29T13:17:14;2.13;;;1.60;;
8104;SDS011;4095;48.942;9.104;2023-12-29T13:19:41;1.80;;;1.67;;
8104;SDS011;4095;48.942;9.104;2023-12-29T13:22:08;1.73;;;1.20;;
8104;SDS011;4095;48.942;9.104;2023-12-29T13:24:36;1.70;;;1.30;;
8104;SDS011;4095;48.942;9.104;2023-12-29T13:27:08;1.63;;;1.53;;
8104;SDS011;4095;48.942;9.104;2023-12-29T13:29:34;1.67;;;1.23;;
8104;SDS011;4095;48.942;9.104;2023-12-29T13:32:04;1.70;;;1.60;;
8104;SDS011;4095;48.942;9.104;2023-12-29T13:34:38;1.67;;;1.30;;
8104;SDS011;4095;48.942;9.104;2023-12-29T13:37:16;1.43;;;1.17;;
8104;SDS011;4095;48.942;9.104;2023-12-29T13:43:01;1.50;;;1.40;;
8104;SDS011;4095;48.942;9.104;2023-12-29T13:45:31;2.43;;;1.37;;
8104;SDS011;4095;48.942;9.104;2023-12-29T13:47:57;1.70;;;1.50;;
8104;SDS011;4095;48.942;9.104;2023-12-29T13:50:26;2.00;;;1.50;;
8104;SDS011;4095;48.942;9.104;2023-12-29T13:52:51;1.30;;;1.20;;
8104;SDS011;4095;48.942;9.104;2023-12-29T13:55:21;2.03;;;1.67;;
8104;SDS011;4095;48.942;9.104;2023-12-29T13:57:50;2.40;;;1.43;;
8104;SDS011;4095;48.942;9.104;2023-12-29T14:00:20;2.00;;;1.53;;
8104;SDS011;4095;48.942;9.104;2023-12-29T14:08:00;1.50;;;1.40;;
8104;SDS011;4095;48.942;9.104;2023-12-29T14:10:35;1.50;;;1.17;;
8104;SDS011;4095;48.942;9.104;2023-12-29T14:13:08;1.30;;;1.20;;
8104;SDS011;4095;48.942;9.104;2023-12-29T14:15:39;1.93;;;1.63;;
8104;SDS011;4095;48.942;9.104;2023-12-29T14:20:52;1.70;;;1.30;;
8104;SDS011;4095;48.942;9.104;2023-12-29T14:23:18;1.57;;;1.47;;
8104;SDS011;4095;48.942;9.104;2023-12-29T14:25:44;2.50;;;1.60;;
8104;SDS011;4095;48.942;9.104;2023-12-29T14:28:19;1.60;;;1.23;;
8104;SDS011;4095;48.942;9.104;2023-12-29T14:30:48;1.53;;;1.40;;
8104;SDS011;4095;48.942;9.104;2023-12-29T14:33:14;2.27;;;2.07;;
8104;SDS011;4095;48.942;9.104;2023-12-29T14:35:40;1.83;;;1.50;;
8104;SDS011;4095;48.942;9.104;2023-12-29T14:38:05;2.03;;;1.37;;
8104;SDS011;4095;48.942;9.104;2023-12-29T14:40:31;1.53;;;1.27;;
8104;SDS011;4095;48.942;9.104;2023-12-29T14:43:00;1.63;;;1.47;;
8104;SDS011;4095;48.942;9.104;2023-12-29T14:45:26;1.50;;;1.40;;
8104;SDS011;4095;48.942;9.104;2023-12-29T14:47:55;1.73;;;1.37;;
8104;SDS011;4095;48.942;9.104;2023-12-29T14:50:23;1.43;;;1.20;;
8104;SDS011;4095;48.942;9.104;2023-12-29T14:52:48;1.73;;;1.60;;
8104;SDS011;4095;48.942;9.104;2023-12-29T14:55:14;1.93;;;1.60;;
8104;SDS011;4095;48.942;9.104;2023-12-29T14:57:39;1.50;;;1.40;;
8104;SDS011;4095;48.942;9.104;2023-12-29T15:00:06;1.67;;;1.20;;
8104;SDS011;4095;48.942;9.104;2023-12-29T15:02:32;1.50;;;1.40;;
8104;SDS011;4095;48.942;9.104;2023-12-29T15:04:57;1.47;;;1.23;;
8104;SDS011;4095;48.942;9.104;2023-12-29T15:07:24;1.73;;;1.10;;
8104;SDS011;4095;48.942;9.104;2023-12-29T15:09:54;1.90;;;1.50;;
8104;SDS011;4095;48.942;9.104;2023-12-29T15:12:20;2.13;;;1.00;;
8104;SDS011;4095;48.942;9.104;2023-12-29T15:14:45;1.57;;;1.33;;
8104;SDS011;4095;48.942;9.104;2023-12-29T15:17:11;1.43;;;1.33;;
8104;SDS011;4095;48.942;9.104;2023-12-29T15:19:36;1.30;;;1.20;;
8104;SDS011;4095;48.942;9.104;2023-12-29T15:22:02;4.47;;;1.53;;
8104;SDS011;4095;48.942;9.104;2023-12-29T15:24:27;2.40;;;1.57;;
8104;SDS011;4095;48.942;9.104;2023-12-29T15:26:53;1.63;;;1.40;;
8104;SDS011;4095;48.942;9.104;2023-12-29T15:29:19;1.60;;;1.50;;
8104;SDS011;4095;48.942;9.104;2023-12-29T15:31:44;1.67;;;1.30;;
8104;SDS011;4095;48.942;9.104;2023-12-29T15:34:11;1.90;;;1.27;;
8104;SDS011;4095;48.942;9.104;2023-12-29T15:36:37;2.43;;;1.67;;
8104;SDS011;4095;48.942;9.104;2023-12-29T15:39:02;2.73;;;1.77;;